Time;durP1;ratioP1;P1;durP2;ratioP2;P2;SDS_P1;SDS_P2;PMS_P1;PMS_P2;Temp;Humidity;BMP_temperature;BMP_pressure;BME280_temperature;BME280_humidity;BME280_pressure;Samples;Min_cycle;Max_cycle;Signal;HPM_P1;HPM_P2
2022/01/31 00:01:41;;;;;;;;;;;5.20;71.50;;;;;;5027452;28;19929;-81
2022/01/31 00:04:07;;;;;;;;;;;5.10;72.10;;;;;;5028692;28;19921;-82
2022/01/31 00:06:32;;;;;;;;;;;5.00;71.90;;;;;;5022523;28;19917;-81
2022/01/31 00:08:58;;;;;;;;;;;4.90;72.60;;;;;;5032258;28;20027;-81
2022/01/31 00:11:23;;;;;;;;;;;4.90;72.60;;;;;;5045943;28;19929;-81
2022/01/31 00:13:59;;;;;;;;;;;4.90;73.10;;;;;;5034005;28;19968;-81
2022/01/31 00:16:30;;;;;;;;;;;5.00;72.60;;;;;;5027991;28;20024;-81
2022/01/31 00:18:56;;;;;;;;;;;4.90;72.60;;;;;;5028756;28;20400;-81
2022/01/31 00:21:21;;;;;;;;;;;5.10;72.40;;;;;;5028703;28;19917;-81
2022/01/31 00:23:47;;;;;;;;;;;5.10;72.40;;;;;;5028692;28;20397;-80
2022/01/31 00:26:12;;;;;;;;;;;5.10;72.10;;;;;;5030540;28;19921;-79
2022/01/31 00:28:38;;;;;;;;;;;5.10;72.20;;;;;;5031501;28;20366;-83
2022/01/31 00:31:03;;;;;;;;;;;5.20;72.00;;;;;;5027710;28;20000;-81
2022/01/31 00:33:29;;;;;;;;;;;5.20;71.70;;;;;;5032023;28;19920;-80
2022/01/31 00:35:54;;;;;;;;;;;5.10;72.10;;;;;;5031948;28;20334;-80
2022/01/31 00:38:19;;;;;;;;;;;5.10;71.80;;;;;;5030577;28;20277;-81
2022/01/31 00:40:45;;;;;;;;;;;5.10;72.30;;;;;;5029251;28;19920;-81
2022/01/31 00:43:12;;;;;;;;;;;5.10;71.90;;;;;;5032278;28;20117;-82
2022/01/31 00:45:45;;;;;;;;;;;5.20;72.10;;;;;;5033009;28;19917;-82
2022/01/31 00:48:17;;;;;;;;;;;5.30;71.60;;;;;;5033802;28;20925;-82
2022/01/31 00:50:46;;;;;;;;;;;5.30;71.60;;;;;;5031971;28;19958;-82
2022/01/31 00:53:12;;;;;;;;;;;5.30;71.60;;;;;;5034850;28;19917;-82
2022/01/31 00:55:37;;;;;;;;;;;5.30;72.00;;;;;;5036927;28;19924;-81
2022/01/31 00:58:03;;;;;;;;;;;5.30;71.90;;;;;;5038851;28;19924;-81
2022/01/31 01:00:28;;;;;;;;;;;5.30;72.00;;;;;;5034631;28;20664;-81
2022/01/31 01:02:54;;;;;;;;;;;5.30;72.10;;;;;;5037526;28;20332;-81
2022/01/31 01:05:19;;;;;;;;;;;5.30;72.20;;;;;;5035481;28;19920;-83
2022/01/31 01:07:46;;;;;;;;;;;5.30;72.20;;;;;;5036002;28;19994;-82
2022/01/31 01:10:12;;;;;;;;;;;5.30;72.00;;;;;;5029318;28;19958;-82
2022/01/31 01:12:38;;;;;;;;;;;5.30;72.30;;;;;;5029767;28;19978;-81
2022/01/31 01:15:04;;;;;;;;;;;5.30;72.10;;;;;;5034449;28;19921;-82
2022/01/31 01:17:29;;;;;;;;;;;5.30;72.50;;;;;;5030501;28;19927;-81
2022/01/31 01:19:55;;;;;;;;;;;5.30;72.70;;;;;;5031765;28;19913;-81
2022/01/31 01:22:20;;;;;;;;;;;5.30;72.40;;;;;;5032785;28;19913;-82
2022/01/31 01:24:48;;;;;;;;;;;5.30;72.60;;;;;;5031587;28;19913;-82
2022/01/31 01:27:14;;;;;;;;;;;5.30;73.10;;;;;;5042658;28;19917;-82
2022/01/31 01:29:40;;;;;;;;;;;5.30;72.80;;;;;;5032585;28;19967;-83
2022/01/31 01:32:06;;;;;;;;;;;5.20;73.00;;;;;;5032380;28;19913;-82
2022/01/31 01:34:33;;;;;;;;;;;5.20;73.30;;;;;;5034611;28;19924;-82
2022/01/31 01:37:00;;;;;;;;;;;5.30;73.00;;;;;;5035385;28;19920;-79
2022/01/31 01:39:26;;;;;;;;;;;5.30;73.20;;;;;;5035274;28;19968;-81
2022/01/31 01:41:52;;;;;;;;;;;5.20;73.40;;;;;;5032938;28;19913;-81
2022/01/31 01:44:17;;;;;;;;;;;5.20;73.50;;;;;;5031724;28;19920;-81
2022/01/31 01:46:43;;;;;;;;;;;5.30;72.80;;;;;;5032549;28;19945;-81
2022/01/31 01:49:08;;;;;;;;;;;5.30;73.10;;;;;;5033298;28;19913;-82
2022/01/31 01:51:34;;;;;;;;;;;5.30;73.30;;;;;;5030808;28;20016;-81
2022/01/31 01:54:00;;;;;;;;;;;5.20;73.80;;;;;;5030909;28;19919;-81
2022/01/31 01:56:25;;;;;;;;;;;5.30;73.30;;;;;;5033182;28;19914;-82
2022/01/31 01:58:51;;;;;;;;;;;5.30;73.40;;;;;;5033088;28;19943;-81
2022/01/31 02:01:16;;;;;;;;;;;5.30;73.00;;;;;;5034353;28;19956;-80
2022/01/31 02:03:42;;;;;;;;;;;5.40;73.40;;;;;;5031086;28;20004;-80
2022/01/31 02:06:07;;;;;;;;;;;5.30;73.20;;;;;;5036501;28;20360;-80
2022/01/31 02:08:43;;;;;;;;;;;5.20;73.20;;;;;;5030947;28;19913;-81
2022/01/31 02:11:10;;;;;;;;;;;5.20;73.60;;;;;;5032319;28;20554;-81
2022/01/31 02:13:36;;;;;;;;;;;5.20;73.60;;;;;;5032680;28;19963;-81
2022/01/31 02:16:02;;;;;;;;;;;5.20;73.80;;;;;;5031497;28;19917;-80
2022/01/31 02:18:29;;;;;;;;;;;5.30;74.50;;;;;;5029581;28;19921;-79
2022/01/31 02:20:55;;;;;;;;;;;5.20;74.60;;;;;;5031800;28;19913;-81
2022/01/31 02:23:21;;;;;;;;;;;5.10;74.70;;;;;;5028958;28;19992;-80
2022/01/31 02:26:03;;;;;;;;;;;5.20;74.90;;;;;;5034144;28;19913;-81
2022/01/31 02:28:33;;;;;;;;;;;5.20;75.60;;;;;;5033250;28;19939;-81
2022/01/31 02:30:59;;;;;;;;;;;5.10;76.90;;;;;;5030377;28;19948;-80
2022/01/31 02:33:24;;;;;;;;;;;5.10;78.20;;;;;;5033671;28;20313;-81
2022/01/31 02:35:52;;;;;;;;;;;5.00;79.10;;;;;;5033557;28;19924;-80
2022/01/31 02:38:18;;;;;;;;;;;4.80;80.10;;;;;;5032824;28;19917;-79
2022/01/31 02:40:45;;;;;;;;;;;4.90;80.60;;;;;;5030787;28;20330;-79
2022/01/31 02:43:28;;;;;;;;;;;4.70;81.20;;;;;;5039315;28;19914;-80
2022/01/31 02:45:53;;;;;;;;;;;4.70;81.90;;;;;;5033772;28;19920;-81
2022/01/31 02:48:21;;;;;;;;;;;4.60;82.40;;;;;;5031975;28;19913;-82
2022/01/31 02:50:47;;;;;;;;;;;4.60;83.40;;;;;;5032706;28;19936;-82
2022/01/31 02:53:23;;;;;;;;;;;4.60;83.50;;;;;;5030929;28;19913;-82
2022/01/31 02:55:49;;;;;;;;;;;4.50;83.80;;;;;;5032457;28;19917;-82
2022/01/31 02:58:14;;;;;;;;;;;4.50;84.10;;;;;;5032276;28;20300;-81
2022/01/31 03:00:40;;;;;;;;;;;4.40;84.60;;;;;;5030506;28;19956;-82
2022/01/31 03:03:05;;;;;;;;;;;4.30;85.20;;;;;;5041369;28;19913;-83
2022/01/31 03:05:31;;;;;;;;;;;4.30;85.50;;;;;;5031158;28;19944;-81
2022/01/31 03:07:57;;;;;;;;;;;4.10;85.60;;;;;;5031549;28;19984;-82
2022/01/31 03:10:22;;;;;;;;;;;4.10;86.50;;;;;;5032122;28;19917;-82
2022/01/31 03:12:48;;;;;;;;;;;4.10;86.70;;;;;;5031366;28;19990;-81
2022/01/31 03:15:13;;;;;;;;;;;4.10;86.70;;;;;;5033280;28;20346;-84
2022/01/31 03:17:42;;;;;;;;;;;3.90;86.80;;;;;;5031887;28;19928;-82
2022/01/31 03:20:08;;;;;;;;;;;3.90;87.20;;;;;;5028911;28;20308;-82
2022/01/31 03:22:33;;;;;;;;;;;3.90;87.10;;;;;;5030694;28;19952;-83
2022/01/31 03:24:58;;;;;;;;;;;3.80;87.20;;;;;;5029531;28;20400;-80
2022/01/31 03:27:25;;;;;;;;;;;3.70;87.40;;;;;;5031015;28;19917;-81
2022/01/31 03:29:50;;;;;;;;;;;3.70;87.80;;;;;;5032135;28;19963;-82
2022/01/31 03:32:15;;;;;;;;;;;3.60;87.20;;;;;;5030422;28;19921;-82
2022/01/31 03:34:41;;;;;;;;;;;3.60;87.50;;;;;;5030436;28;20009;-82
2022/01/31 03:37:06;;;;;;;;;;;3.60;87.60;;;;;;5030462;28;19927;-83
2022/01/31 03:39:32;;;;;;;;;;;3.60;87.80;;;;;;5030439;28;19924;-83
2022/01/31 03:41:57;;;;;;;;;;;3.60;88.20;;;;;;5032202;28;19921;-83
2022/01/31 03:44:23;;;;;;;;;;;3.50;88.20;;;;;;5032708;28;20463;-83
2022/01/31 03:46:48;;;;;;;;;;;3.60;88.70;;;;;;5029795;28;19914;-83
2022/01/31 03:49:14;;;;;;;;;;;3.60;88.30;;;;;;5031414;28;19917;-83
2022/01/31 03:51:39;;;;;;;;;;;3.60;88.20;;;;;;5031815;28;20023;-84
2022/01/31 03:54:05;;;;;;;;;;;3.50;88.30;;;;;;5030607;28;19913;-84
2022/01/31 03:56:30;;;;;;;;;;;3.60;88.70;;;;;;5028310;28;19967;-84
2022/01/31 03:58:56;;;;;;;;;;;3.60;88.80;;;;;;5031536;28;20346;-83
2022/01/31 04:01:26;;;;;;;;;;;3.60;88.90;;;;;;5028526;28;19917;-83
2022/01/31 04:03:51;;;;;;;;;;;3.60;89.00;;;;;;5028577;28;19947;-84
2022/01/31 04:06:17;;;;;;;;;;;3.60;88.80;;;;;;5024481;28;19914;-83
2022/01/31 04:08:42;;;;;;;;;;;3.80;89.00;;;;;;5027655;28;20044;-82
2022/01/31 04:11:10;;;;;;;;;;;3.80;88.90;;;;;;5028693;28;20007;-84
2022/01/31 04:13:35;;;;;;;;;;;3.80;89.00;;;;;;5027399;28;19923;-82
2022/01/31 04:16:01;;;;;;;;;;;3.80;89.10;;;;;;5026969;28;19999;-83
2022/01/31 04:18:26;;;;;;;;;;;4.00;89.30;;;;;;5027651;28;20353;-83
2022/01/31 04:20:52;;;;;;;;;;;4.10;89.10;;;;;;5027780;28;19917;-83
2022/01/31 04:23:19;;;;;;;;;;;4.10;89.30;;;;;;5027211;28;19936;-82
2022/01/31 04:30:54;;;;;;;;;;;4.30;89.60;;;;;;5029914;28;20395;-83
2022/01/31 04:33:21;;;;;;;;;;;4.40;89.70;;;;;;5031338;28;19963;-84
2022/01/31 04:35:46;;;;;;;;;;;4.40;89.80;;;;;;5028328;28;20008;-83
2022/01/31 04:38:12;;;;;;;;;;;4.50;89.80;;;;;;5028960;28;19933;-81
2022/01/31 04:40:37;;;;;;;;;;;4.60;89.50;;;;;;5028794;28;19994;-84
2022/01/31 04:43:03;;;;;;;;;;;4.60;89.80;;;;;;5029754;28;19921;-84
2022/01/31 04:45:28;;;;;;;;;;;4.70;89.50;;;;;;5029661;28;20013;-83
2022/01/31 04:47:54;;;;;;;;;;;4.80;89.30;;;;;;5031910;28;20404;-81
2022/01/31 04:50:19;;;;;;;;;;;4.80;89.50;;;;;;5027653;28;19960;-84
2022/01/31 04:52:45;;;;;;;;;;;4.80;89.60;;;;;;5015151;28;19996;-83
2022/01/31 04:55:10;;;;;;;;;;;5.00;89.70;;;;;;5032998;28;19986;-84
2022/01/31 04:57:36;;;;;;;;;;;5.10;89.70;;;;;;5034286;28;20263;-82
2022/01/31 05:00:04;;;;;;;;;;;5.10;89.40;;;;;;5031037;28;19952;-84
2022/01/31 05:02:29;;;;;;;;;;;5.00;89.40;;;;;;5029158;28;20008;-84
2022/01/31 05:04:55;;;;;;;;;;;5.10;89.30;;;;;;5032870;28;20376;-84
2022/01/31 05:07:21;;;;;;;;;;;5.10;89.20;;;;;;5030588;28;19920;-82
2022/01/31 05:09:47;;;;;;;;;;;5.10;89.10;;;;;;5031557;28;19917;-83
2022/01/31 05:12:12;;;;;;;;;;;5.20;89.40;;;;;;5033981;28;19917;-84
2022/01/31 05:14:38;;;;;;;;;;;5.30;89.50;;;;;;5031592;28;20261;-86
2022/01/31 05:17:03;;;;;;;;;;;5.30;89.20;;;;;;5027222;28;19986;-86
2022/01/31 05:19:29;;;;;;;;;;;5.30;89.20;;;;;;5031226;28;19927;-85
2022/01/31 05:21:54;;;;;;;;;;;5.30;89.20;;;;;;5029303;28;20338;-83
2022/01/31 05:24:20;;;;;;;;;;;5.30;89.00;;;;;;5030775;28;19993;-84
2022/01/31 05:26:50;;;;;;;;;;;5.40;89.30;;;;;;5031908;28;19913;-85
2022/01/31 05:29:16;;;;;;;;;;;5.40;89.30;;;;;;5030001;28;19925;-84
2022/01/31 05:31:42;;;;;;;;;;;5.40;89.10;;;;;;5029096;28;19959;-84
2022/01/31 05:34:07;;;;;;;;;;;5.40;89.00;;;;;;5030353;28;19917;-84
2022/01/31 05:36:33;;;;;;;;;;;5.50;89.20;;;;;;5032433;28;21663;-84
2022/01/31 05:38:58;;;;;;;;;;;5.50;88.80;;;;;;5032089;28;19917;-84
2022/01/31 05:41:23;;;;;;;;;;;5.50;88.80;;;;;;5033227;28;20386;-82
2022/01/31 05:43:49;;;;;;;;;;;5.50;88.80;;;;;;5035188;28;19913;-84
2022/01/31 05:46:15;;;;;;;;;;;5.50;88.60;;;;;;5032386;28;19956;-85
2022/01/31 05:48:40;;;;;;;;;;;5.50;88.60;;;;;;5034232;28;19967;-85
2022/01/31 05:51:11;;;;;;;;;;;5.60;88.70;;;;;;5034358;28;20376;-84
2022/01/31 05:53:36;;;;;;;;;;;5.60;88.40;;;;;;5033067;28;19919;-82
2022/01/31 05:56:02;;;;;;;;;;;5.60;88.20;;;;;;5030296;28;20000;-85
2022/01/31 05:58:28;;;;;;;;;;;5.60;88.10;;;;;;5035191;28;19962;-86
2022/01/31 06:00:53;;;;;;;;;;;5.60;88.40;;;;;;5036168;28;19913;-86
2022/01/31 06:03:19;;;;;;;;;;;5.60;88.40;;;;;;5032524;28;19913;-79
2022/01/31 06:05:44;;;;;;;;;;;5.60;88.30;;;;;;5038110;28;19939;-83
2022/01/31 06:08:10;;;;;;;;;;;5.60;88.10;;;;;;5043019;28;20100;-83
2022/01/31 06:10:42;;;;;;;;;;;5.60;87.90;;;;;;5045667;28;19932;-81
2022/01/31 06:13:07;;;;;;;;;;;5.60;87.70;;;;;;5045434;28;19921;-82
2022/01/31 06:15:33;;;;;;;;;;;5.70;87.20;;;;;;5044374;28;19959;-84
2022/01/31 06:17:58;;;;;;;;;;;5.70;87.30;;;;;;5034984;28;20338;-78
2022/01/31 06:20:24;;;;;;;;;;;5.70;87.30;;;;;;5034018;28;20010;-77
2022/01/31 06:22:50;;;;;;;;;;;5.70;86.90;;;;;;5031910;28;20326;-78
2022/01/31 06:25:16;;;;;;;;;;;5.70;87.10;;;;;;5028907;28;19913;-77
2022/01/31 06:27:42;;;;;;;;;;;5.70;86.10;;;;;;5030503;28;19921;-77
2022/01/31 06:30:08;;;;;;;;;;;5.80;86.00;;;;;;5028008;28;20008;-77
2022/01/31 06:32:34;;;;;;;;;;;5.80;85.90;;;;;;5028006;28;19913;-77
2022/01/31 06:34:59;;;;;;;;;;;5.80;86.10;;;;;;5032696;28;19913;-81
2022/01/31 06:37:25;;;;;;;;;;;5.70;86.20;;;;;;5030443;28;19964;-78
2022/01/31 06:39:50;;;;;;;;;;;5.80;86.10;;;;;;5029484;28;20342;-78
2022/01/31 06:42:16;;;;;;;;;;;5.80;86.00;;;;;;5030848;28;19913;-79
2022/01/31 06:44:42;;;;;;;;;;;5.80;86.20;;;;;;5032342;28;19920;-77
2022/01/31 06:47:07;;;;;;;;;;;5.80;86.60;;;;;;5016671;28;19917;-79
2022/01/31 06:49:33;;;;;;;;;;;5.80;86.80;;;;;;5032708;28;19913;-81
2022/01/31 06:51:58;;;;;;;;;;;5.80;86.40;;;;;;5032629;28;19966;-83
2022/01/31 06:54:24;;;;;;;;;;;5.80;86.30;;;;;;5048087;28;19921;-83
2022/01/31 06:56:49;;;;;;;;;;;5.80;86.70;;;;;;5050034;28;19919;-82
2022/01/31 06:59:15;;;;;;;;;;;5.60;87.00;;;;;;5050367;28;20058;-83
2022/01/31 07:01:40;;;;;;;;;;;5.70;87.00;;;;;;5047546;28;19936;-79
2022/01/31 07:04:06;;;;;;;;;;;5.60;87.30;;;;;;5034958;28;20004;-84
2022/01/31 07:06:31;;;;;;;;;;;5.70;88.00;;;;;;5030876;28;20396;-82
2022/01/31 07:08:59;;;;;;;;;;;5.70;88.00;;;;;;5034393;28;19909;-84
2022/01/31 07:11:28;;;;;;;;;;;5.70;88.00;;;;;;5032386;28;19949;-84
2022/01/31 07:14:09;;;;;;;;;;;5.70;88.20;;;;;;5030730;28;19913;-83
2022/01/31 07:16:34;;;;;;;;;;;5.70;88.20;;;;;;5031393;28;19917;-84
2022/01/31 07:19:08;;;;;;;;;;;5.50;87.90;;;;;;5034147;28;19924;-83
2022/01/31 07:21:39;;;;;;;;;;;5.50;87.60;;;;;;5030368;28;19920;-83
2022/01/31 07:26:39;;;;;;;;;;;5.30;88.30;;;;;;5032191;28;19912;-84
2022/01/31 07:29:04;;;;;;;;;;;5.20;88.40;;;;;;5029960;28;20558;-85
2022/01/31 07:31:30;;;;;;;;;;;5.10;88.20;;;;;;5030285;28;19913;-84
2022/01/31 07:33:55;;;;;;;;;;;5.10;88.70;;;;;;5029833;28;19913;-85
2022/01/31 07:36:22;;;;;;;;;;;5.10;88.60;;;;;;5031393;28;19941;-85
2022/01/31 07:38:47;;;;;;;;;;;5.00;88.70;;;;;;5031135;28;20021;-84
2022/01/31 07:41:14;;;;;;;;;;;5.00;89.00;;;;;;5029412;28;19953;-85
2022/01/31 07:43:43;;;;;;;;;;;5.00;89.00;;;;;;5028435;28;19971;-84
2022/01/31 07:46:10;;;;;;;;;;;4.90;89.40;;;;;;5037896;28;19989;-84
2022/01/31 07:48:35;;;;;;;;;;;4.90;88.70;;;;;;5041417;28;19917;-86
2022/01/31 07:51:01;;;;;;;;;;;4.90;88.90;;;;;;5039130;28;20000;-84
2022/01/31 07:53:26;;;;;;;;;;;4.80;89.10;;;;;;5037614;28;19909;-84
2022/01/31 07:55:52;;;;;;;;;;;4.70;88.90;;;;;;5033046;28;19932;-83
2022/01/31 07:58:18;;;;;;;;;;;4.80;89.00;;;;;;5033767;28;19928;-84
2022/01/31 08:00:47;;;;;;;;;;;4.80;89.50;;;;;;5029630;28;19917;-83
2022/01/31 08:03:13;;;;;;;;;;;4.80;89.20;;;;;;5031678;28;19947;-82
2022/01/31 08:05:38;;;;;;;;;;;4.80;89.10;;;;;;5028717;28;19939;-84
2022/01/31 08:08:04;;;;;;;;;;;4.70;89.20;;;;;;5029336;28;19913;-85
2022/01/31 08:10:29;;;;;;;;;;;4.70;89.60;;;;;;5029984;28;19941;-83
2022/01/31 08:12:56;;;;;;;;;;;4.80;89.60;;;;;;5027132;28;20342;-81
2022/01/31 08:15:26;;;;;;;;;;;4.90;89.60;;;;;;5028337;28;19920;-82
2022/01/31 08:17:52;;;;;;;;;;;4.80;89.60;;;;;;5026642;28;19920;-83
2022/01/31 08:20:17;;;;;;;;;;;4.80;89.50;;;;;;5027810;28;19928;-83
2022/01/31 08:22:43;;;;;;;;;;;4.80;89.50;;;;;;5027430;28;19913;-83
2022/01/31 08:25:13;;;;;;;;;;;4.80;89.40;;;;;;5026380;28;19990;-84
2022/01/31 08:27:41;;;;;;;;;;;4.70;89.70;;;;;;5028067;28;19914;-83
2022/01/31 08:30:11;;;;;;;;;;;4.80;89.80;;;;;;5028039;28;20014;-83
2022/01/31 08:32:44;;;;;;;;;;;4.90;89.90;;;;;;5028539;28;19913;-82
2022/01/31 08:37:54;;;;;;;;;;;4.90;89.60;;;;;;5029136;28;19924;-83
2022/01/31 08:40:20;;;;;;;;;;;4.90;89.80;;;;;;5027128;28;20231;-82
2022/01/31 08:42:45;;;;;;;;;;;4.90;89.30;;;;;;5025635;28;19913;-83
2022/01/31 08:45:11;;;;;;;;;;;5.00;89.50;;;;;;5028320;28;20001;-83
2022/01/31 08:47:41;;;;;;;;;;;5.00;89.50;;;;;;5030308;28;19939;-83
2022/01/31 08:50:07;;;;;;;;;;;5.00;89.90;;;;;;5025730;28;19917;-82
2022/01/31 08:52:33;;;;;;;;;;;5.00;90.10;;;;;;5025195;28;20031;-84
2022/01/31 08:54:58;;;;;;;;;;;5.10;90.20;;;;;;5026691;28;19913;-82
2022/01/31 08:57:24;;;;;;;;;;;5.10;89.70;;;;;;5030945;28;19931;-84
2022/01/31 08:59:51;;;;;;;;;;;5.10;89.40;;;;;;5029234;28;20523;-83
2022/01/31 09:02:18;;;;;;;;;;;5.10;89.60;;;;;;5027413;28;19913;-85
2022/01/31 09:04:51;;;;;;;;;;;5.10;89.30;;;;;;5011392;28;20024;-83
2022/01/31 09:07:19;;;;;;;;;;;5.10;89.40;;;;;;5026561;28;19936;-83
2022/01/31 09:09:48;;;;;;;;;;;5.10;89.90;;;;;;5027720;28;19917;-84
2022/01/31 09:12:16;;;;;;;;;;;5.10;89.80;;;;;;5031621;28;19921;-84
2022/01/31 09:14:41;;;;;;;;;;;5.10;89.70;;;;;;5046269;28;19913;-85
2022/01/31 09:17:07;;;;;;;;;;;5.10;89.70;;;;;;5045111;28;19913;-84
2022/01/31 09:19:32;;;;;;;;;;;5.00;89.70;;;;;;5041125;28;19917;-84
2022/01/31 09:21:59;;;;;;;;;;;5.00;90.00;;;;;;5036665;28;19913;-80
2022/01/31 09:24:25;;;;;;;;;;;5.10;89.60;;;;;;5037502;28;19952;-81
2022/01/31 09:26:50;;;;;;;;;;;5.10;89.40;;;;;;5036241;28;19913;-85
2022/01/31 09:29:17;;;;;;;;;;;5.10;89.90;;;;;;5036978;28;20388;-86
2022/01/31 09:31:43;;;;;;;;;;;5.10;89.40;;;;;;5039028;28;19913;-84
2022/01/31 09:34:08;;;;;;;;;;;5.10;89.70;;;;;;5038790;28;19978;-85
2022/01/31 09:36:34;;;;;;;;;;;5.10;90.00;;;;;;5036622;28;19999;-84
2022/01/31 09:39:00;;;;;;;;;;;5.10;89.80;;;;;;5036210;28;19935;-81
2022/01/31 09:41:28;;;;;;;;;;;5.00;89.60;;;;;;5036196;28;19920;-85
2022/01/31 09:44:42;;;;;;;;;;;5.00;90.40;;;;;;5037349;28;19952;-84
2022/01/31 09:49:18;;;;;;;;;;;5.10;90.00;;;;;;5035603;28;19913;-79
2022/01/31 09:51:43;;;;;;;;;;;5.10;90.10;;;;;;5031990;28;19913;-84
2022/01/31 09:54:09;;;;;;;;;;;5.10;90.10;;;;;;5033704;28;20416;-86
2022/01/31 09:56:37;;;;;;;;;;;5.10;89.70;;;;;;5033129;28;20452;-86
2022/01/31 09:59:04;;;;;;;;;;;5.10;90.00;;;;;;5031853;28;19937;-85
2022/01/31 10:01:29;;;;;;;;;;;5.10;90.30;;;;;;5034842;28;19913;-84
2022/01/31 10:03:56;;;;;;;;;;;5.10;90.10;;;;;;5035756;28;19936;-85
2022/01/31 10:06:35;;;;;;;;;;;5.20;90.00;;;;;;5035071;28;19924;-80
2022/01/31 10:09:05;;;;;;;;;;;5.10;90.10;;;;;;5033520;28;20482;-78
2022/01/31 10:11:40;;;;;;;;;;;5.10;90.20;;;;;;5039667;28;19928;-85
2022/01/31 10:16:57;;;;;;;;;;;5.30;90.00;;;;;;5029311;28;20353;-79
2022/01/31 10:19:23;;;;;;;;;;;5.30;89.90;;;;;;5031045;28;20042;-81
2022/01/31 10:21:59;;;;;;;;;;;5.30;90.00;;;;;;5031926;28;19966;-80
2022/01/31 10:24:25;;;;;;;;;;;5.30;90.00;;;;;;5029894;28;19928;-79
2022/01/31 10:26:51;;;;;;;;;;;5.40;89.80;;;;;;5031984;28;19913;-79
2022/01/31 10:29:19;;;;;;;;;;;5.40;89.70;;;;;;5032727;28;19921;-78
2022/01/31 10:32:06;;;;;;;;;;;5.30;89.70;;;;;;5031202;28;19918;-81
2022/01/31 10:34:33;;;;;;;;;;;5.30;89.90;;;;;;5032262;28;19917;-79
2022/01/31 10:37:10;;;;;;;;;;;5.30;90.30;;;;;;5033562;28;19956;-80
2022/01/31 10:51:21;;;;;;;;;;;5.30;89.80;;;;;;5023177;28;19919;-78
2022/01/31 10:53:38;;;;;;;;;;;5.30;89.30;;;;;;5034696;28;19921;-78
2022/01/31 10:56:03;;;;;;;;;;;5.20;89.10;;;;;;5031599;28;19919;-78
2022/01/31 10:58:30;;;;;;;;;;;5.30;89.30;;;;;;5032514;28;20003;-79
2022/01/31 11:01:10;;;;;;;;;;;5.30;89.50;;;;;;5049140;28;20289;-78
2022/01/31 11:03:35;;;;;;;;;;;5.30;89.60;;;;;;5049382;28;19921;-78
2022/01/31 11:06:10;;;;;;;;;;;5.30;89.50;;;;;;5035135;28;19909;-79
2022/01/31 11:08:36;;;;;;;;;;;5.40;89.40;;;;;;5032156;28;19928;-79
2022/01/31 11:11:02;;;;;;;;;;;5.40;89.70;;;;;;5033580;28;19944;-78
2022/01/31 11:13:29;;;;;;;;;;;5.40;89.80;;;;;;5028829;28;20366;-78
2022/01/31 11:15:55;;;;;;;;;;;5.50;89.80;;;;;;5031690;28;19944;-78
2022/01/31 11:18:25;;;;;;;;;;;5.40;90.00;;;;;;5027971;28;19917;-79
2022/01/31 11:20:54;;;;;;;;;;;5.50;89.80;;;;;;5031691;28;19917;-79
2022/01/31 11:23:21;;;;;;;;;;;5.50;89.30;;;;;;5032748;28;19913;-79
2022/01/31 11:25:50;;;;;;;;;;;5.60;89.20;;;;;;5032512;28;19909;-78
2022/01/31 11:28:17;;;;;;;;;;;5.50;89.20;;;;;;5029724;28;19917;-79
2022/01/31 11:30:43;;;;;;;;;;;5.60;89.60;;;;;;5031393;28;19923;-78
2022/01/31 11:33:09;;;;;;;;;;;5.50;89.80;;;;;;5032984;28;19909;-78
2022/01/31 11:35:35;;;;;;;;;;;5.60;89.50;;;;;;5033181;28;19932;-78
2022/01/31 11:38:01;;;;;;;;;;;5.60;89.50;;;;;;5031537;28;19913;-78
2022/01/31 11:40:27;;;;;;;;;;;5.50;89.70;;;;;;5031547;28;19928;-79
2022/01/31 11:42:53;;;;;;;;;;;5.50;90.20;;;;;;5031795;28;19913;-79
2022/01/31 11:45:39;;;;;;;;;;;5.60;90.20;;;;;;5032164;28;19913;-78
2022/01/31 11:48:08;;;;;;;;;;;5.60;89.90;;;;;;5031531;28;19978;-78
2022/01/31 11:50:44;;;;;;;;;;;5.60;90.20;;;;;;5031988;28;19967;-79
2022/01/31 11:53:09;;;;;;;;;;;5.60;90.10;;;;;;5031231;28;19913;-79
2022/01/31 11:55:38;;;;;;;;;;;5.60;90.30;;;;;;5033735;28;20334;-79
2022/01/31 11:58:07;;;;;;;;;;;5.60;90.70;;;;;;5032984;28;19943;-79
2022/01/31 12:00:35;;;;;;;;;;;5.60;90.70;;;;;;5030719;28;19909;-79
2022/01/31 12:03:02;;;;;;;;;;;5.60;90.50;;;;;;5031536;28;19913;-80
2022/01/31 12:05:30;;;;;;;;;;;5.60;90.90;;;;;;5031790;28;19917;-80
2022/01/31 12:07:59;;;;;;;;;;;5.70;90.20;;;;;;5036341;28;20331;-80
2022/01/31 12:10:30;;;;;;;;;;;5.60;90.30;;;;;;5032981;28;19921;-80
2022/01/31 12:13:01;;;;;;;;;;;5.60;89.90;;;;;;5034884;28;20378;-79
2022/01/31 12:15:36;;;;;;;;;;;5.60;89.80;;;;;;5041168;28;19913;-80
2022/01/31 12:24:09;;;;;;;;;;;5.70;90.30;;;;;;5032486;28;20006;-77
2022/01/31 12:26:35;;;;;;;;;;;5.60;90.60;;;;;;5040136;28;19940;-78
2022/01/31 12:29:11;;;;;;;;;;;5.70;90.60;;;;;;5037935;28;19913;-78
2022/01/31 12:31:38;;;;;;;;;;;5.70;90.50;;;;;;5041962;28;20439;-80
2022/01/31 12:34:08;;;;;;;;;;;5.70;90.90;;;;;;5043739;28;19938;-78
2022/01/31 12:36:34;;;;;;;;;;;5.70;91.30;;;;;;5042004;28;19913;-78
2022/01/31 12:39:00;;;;;;;;;;;5.80;91.50;;;;;;5030179;28;20588;-79
2022/01/31 12:41:32;;;;;;;;;;;5.80;91.60;;;;;;5032236;28;19913;-79
2022/01/31 12:44:17;;;;;;;;;;;5.70;91.50;;;;;;5032717;28;20329;-80
2022/01/31 12:46:49;;;;;;;;;;;5.80;91.20;;;;;;5030082;28;19940;-80
2022/01/31 12:49:15;;;;;;;;;;;5.70;91.40;;;;;;5031067;28;19917;-80
2022/01/31 12:52:00;;;;;;;;;;;5.80;91.80;;;;;;5033263;28;20370;-79
2022/01/31 12:54:26;;;;;;;;;;;5.70;91.70;;;;;;5029592;28;20487;-79
2022/01/31 12:56:52;;;;;;;;;;;5.80;92.00;;;;;;5027416;28;19960;-79
2022/01/31 12:59:17;;;;;;;;;;;5.80;91.90;;;;;;5028623;28;20004;-78
2022/01/31 13:01:48;;;;;;;;;;;5.80;91.70;;;;;;5027109;28;19920;-79
2022/01/31 13:04:13;;;;;;;;;;;5.80;91.60;;;;;;5030584;28;19917;-83
2022/01/31 13:06:52;;;;;;;;;;;5.80;91.10;;;;;;5031299;28;19931;-82
2022/01/31 13:09:28;;;;;;;;;;;5.80;91.60;;;;;;5028762;28;19919;-80
2022/01/31 13:11:55;;;;;;;;;;;5.80;91.40;;;;;;5030465;28;19917;-80
2022/01/31 13:14:25;;;;;;;;;;;5.80;91.00;;;;;;5025052;28;19913;-79
2022/01/31 13:17:07;;;;;;;;;;;5.80;91.20;;;;;;5030446;28;20300;-79
2022/01/31 13:19:34;;;;;;;;;;;5.80;91.30;;;;;;5029700;28;20377;-81
2022/01/31 13:22:03;;;;;;;;;;;5.80;91.50;;;;;;5029349;28;20059;-80
2022/01/31 13:24:33;;;;;;;;;;;5.90;91.70;;;;;;5029303;28;19933;-82
2022/01/31 13:26:59;;;;;;;;;;;5.90;91.60;;;;;;5031420;28;19951;-81
2022/01/31 13:29:26;;;;;;;;;;;5.90;91.40;;;;;;5023763;28;19963;-80
2022/01/31 13:31:51;;;;;;;;;;;5.80;91.50;;;;;;5031001;28;19924;-79
2022/01/31 13:34:32;;;;;;;;;;;5.80;91.30;;;;;;5029569;28;20472;-79
2022/01/31 13:36:57;;;;;;;;;;;5.80;91.50;;;;;;5028409;28;19921;-80
2022/01/31 13:39:23;;;;;;;;;;;5.90;91.80;;;;;;5028274;28;20020;-81
2022/01/31 13:41:48;;;;;;;;;;;5.90;91.70;;;;;;5029987;28;19913;-80
2022/01/31 13:44:14;;;;;;;;;;;6.00;91.40;;;;;;5031987;28;19917;-80
2022/01/31 13:46:48;;;;;;;;;;;6.00;91.70;;;;;;5029085;28;20407;-79
2022/01/31 13:49:18;;;;;;;;;;;6.00;91.60;;;;;;5029891;28;20053;-79
2022/01/31 13:51:48;;;;;;;;;;;6.00;91.60;;;;;;5029239;28;19923;-79
2022/01/31 13:54:15;;;;;;;;;;;6.10;91.40;;;;;;5026828;28;20011;-78
2022/01/31 13:56:53;;;;;;;;;;;6.00;91.70;;;;;;5025736;28;19971;-79
2022/01/31 13:59:19;;;;;;;;;;;6.00;91.70;;;;;;5027865;28;19925;-80
2022/01/31 14:01:45;;;;;;;;;;;6.00;91.70;;;;;;5029875;28;20456;-79
2022/01/31 14:04:11;;;;;;;;;;;6.10;91.70;;;;;;5035527;28;19914;-80
2022/01/31 14:06:37;;;;;;;;;;;6.10;91.80;;;;;;5037826;28;19913;-80
2022/01/31 14:09:06;;;;;;;;;;;6.10;91.70;;;;;;5045196;28;19959;-79
2022/01/31 14:11:36;;;;;;;;;;;6.10;91.60;;;;;;5037396;28;19944;-80
2022/01/31 14:14:02;;;;;;;;;;;6.10;91.40;;;;;;5042857;28;19917;-81
2022/01/31 14:16:32;;;;;;;;;;;6.10;91.60;;;;;;5049252;28;19976;-79
2022/01/31 14:19:09;;;;;;;;;;;6.10;91.60;;;;;;5049835;28;19944;-82
2022/01/31 14:21:35;;;;;;;;;;;6.10;91.40;;;;;;5043151;28;20038;-82
2022/01/31 14:24:01;;;;;;;;;;;6.00;91.40;;;;;;5033134;28;19920;-81
2022/01/31 14:26:36;;;;;;;;;;;6.00;91.50;;;;;;5034709;28;19913;-83
2022/01/31 14:29:02;;;;;;;;;;;6.00;91.50;;;;;;5033231;28;20016;-80
2022/01/31 14:31:33;;;;;;;;;;;6.10;91.80;;;;;;5035219;28;19913;-82
2022/01/31 14:34:06;;;;;;;;;;;6.00;91.70;;;;;;5035203;28;20014;-82
2022/01/31 14:36:35;;;;;;;;;;;6.00;91.60;;;;;;5050875;28;19917;-80
2022/01/31 14:47:24;;;;;;;;;;;6.00;92.10;;;;;;5033244;28;20451;-80
2022/01/31 14:49:51;;;;;;;;;;;6.10;91.80;;;;;;5032309;28;19920;-80
2022/01/31 14:52:17;;;;;;;;;;;6.00;91.80;;;;;;5029370;28;19924;-80
2022/01/31 14:54:43;;;;;;;;;;;6.00;91.80;;;;;;5032766;28;19921;-79
2022/01/31 14:57:09;;;;;;;;;;;6.00;92.00;;;;;;5034057;28;19913;-80
2022/01/31 14:59:35;;;;;;;;;;;6.10;92.00;;;;;;5032296;28;19924;-80
2022/01/31 15:02:00;;;;;;;;;;;6.10;91.90;;;;;;5033350;28;20607;-81
2022/01/31 15:04:27;;;;;;;;;;;6.10;91.60;;;;;;5035903;28;19940;-81
2022/01/31 15:06:53;;;;;;;;;;;6.10;91.20;;;;;;5035733;28;19919;-79
2022/01/31 15:09:19;;;;;;;;;;;6.10;91.00;;;;;;5033625;28;20393;-80
2022/01/31 15:11:45;;;;;;;;;;;6.10;91.20;;;;;;5033658;28;19913;-79
2022/01/31 15:14:11;;;;;;;;;;;6.10;91.20;;;;;;5034182;28;19917;-82